createdAt,value
2022-10-04T00:01:06.910Z,3.89
2022-10-04T00:03:47.610Z,3.90
2022-10-04T00:06:24.622Z,4.20
2022-10-04T00:09:16.287Z,4.30
2022-10-04T00:11:48.633Z,3.63
2022-10-04T00:14:39.035Z,3.30
2022-10-04T00:17:17.156Z,3.40
2022-10-04T00:19:49.159Z,3.70
2022-10-04T00:22:56.702Z,3.20
2022-10-04T00:25:35.310Z,3.13
2022-10-04T00:28:40.617Z,2.72
2022-10-04T00:31:26.215Z,2.70
2022-10-04T00:34:14.505Z,2.40
2022-10-04T00:36:59.900Z,2.58
2022-10-04T00:39:39.629Z,2.33
2022-10-04T00:42:24.928Z,2.00
2022-10-04T00:45:08.709Z,2.58
2022-10-04T00:48:01.307Z,2.70
2022-10-04T00:50:59.853Z,2.80
2022-10-04T00:53:54.025Z,2.72
2022-10-04T00:56:29.948Z,2.50
2022-10-04T00:59:03.465Z,2.40
2022-10-04T01:04:03.681Z,2.72
2022-10-04T01:06:32.572Z,3.13
2022-10-04T01:09:05.852Z,3.20
2022-10-04T01:11:42.965Z,2.70
2022-10-04T01:14:13.682Z,3.05
2022-10-04T01:16:42.071Z,3.17
2022-10-04T01:19:27.303Z,3.42
2022-10-04T01:22:15.324Z,3.33
2022-10-04T01:24:46.219Z,3.08
2022-10-04T01:27:41.893Z,3.35
2022-10-04T01:30:21.158Z,3.25
2022-10-04T01:32:54.691Z,4.10
2022-10-04T01:35:22.692Z,3.55
2022-10-04T01:37:52.972Z,3.50
2022-10-04T01:40:22.554Z,4.75
2022-10-04T01:42:55.162Z,3.88
2022-10-04T01:45:48.265Z,3.50
2022-10-04T01:48:22.091Z,3.90
2022-10-04T01:51:05.140Z,3.60
2022-10-04T01:53:38.097Z,3.50
2022-10-04T01:56:29.815Z,4.20
2022-10-04T01:59:04.087Z,4.65
2022-10-04T02:01:57.434Z,4.60
2022-10-04T02:04:29.785Z,5.47
2022-10-04T02:06:59.914Z,6.15
2022-10-04T02:09:32.378Z,6.68
2022-10-04T02:12:00.975Z,6.68
2022-10-04T02:14:33.415Z,6.65
2022-10-04T02:17:03.781Z,5.95
2022-10-04T02:19:40.480Z,6.20
2022-10-04T02:22:11.361Z,6.30
2022-10-04T02:24:45.842Z,6.90
2022-10-04T02:27:14.575Z,6.68
2022-10-04T02:29:42.433Z,6.95
2022-10-04T02:32:29.384Z,7.45
2022-10-04T02:35:00.528Z,7.68
2022-10-04T02:37:31.692Z,6.75
2022-10-04T02:40:08.693Z,7.85
2022-10-04T02:42:44.733Z,7.32
2022-10-04T02:45:25.470Z,7.18
2022-10-04T02:48:07.841Z,7.63
2022-10-04T02:50:40.325Z,7.13
2022-10-04T02:53:32.839Z,7.22
2022-10-04T02:56:03.417Z,7.05
2022-10-04T02:58:33.827Z,7.53
2022-10-04T03:01:02.331Z,8.02
2022-10-04T03:03:39.693Z,9.00
2022-10-04T03:06:15.645Z,8.15
2022-10-04T03:09:16.539Z,8.35
2022-10-04T03:11:45.098Z,8.90
2022-10-04T03:14:25.788Z,8.55
2022-10-04T03:17:03.588Z,8.63
2022-10-04T03:19:38.632Z,8.23
2022-10-04T03:22:15.908Z,8.40
2022-10-04T03:24:50.424Z,8.20
2022-10-04T03:27:25.639Z,7.93
2022-10-04T03:29:59.191Z,7.82
2022-10-04T03:32:41.314Z,7.55
2022-10-04T03:35:29.680Z,7.90
2022-10-04T03:38:05.637Z,8.25
2022-10-04T03:40:38.906Z,7.78
2022-10-04T03:43:07.114Z,8.15
2022-10-04T03:45:38.049Z,8.73
2022-10-04T03:48:09.022Z,9.18
2022-10-04T03:50:47.333Z,9.93
2022-10-04T03:53:19.808Z,9.27
2022-10-04T03:55:59.872Z,9.30
2022-10-04T03:58:31.271Z,9.77
2022-10-04T04:01:12.351Z,9.92
2022-10-04T04:04:01.825Z,9.40
2022-10-04T04:06:43.779Z,9.50
2022-10-04T04:09:27.151Z,9.45
2022-10-04T04:11:58.203Z,10.77
2022-10-04T04:14:29.314Z,9.35
2022-10-04T04:17:30.525Z,9.70
2022-10-04T04:20:07.647Z,9.93
2022-10-04T04:22:40.344Z,9.45
2022-10-04T04:25:14.938Z,9.68
2022-10-04T04:27:44.167Z,8.77
2022-10-04T04:30:19.427Z,8.48
2022-10-04T04:32:51.704Z,8.52
2022-10-04T04:35:32.567Z,10.02
2022-10-04T04:38:04.490Z,8.40
2022-10-04T04:40:32.024Z,8.55
2022-10-04T04:43:02.038Z,9.25
2022-10-04T04:45:32.162Z,8.77
2022-10-04T04:48:03.763Z,8.77
2022-10-04T04:50:37.494Z,8.90
2022-10-04T04:53:07.759Z,9.15
2022-10-04T04:56:03.498Z,8.30
2022-10-04T04:58:45.582Z,9.65
2022-10-04T05:01:26.204Z,8.90
2022-10-04T05:04:04.184Z,8.93
2022-10-04T05:06:33.074Z,9.00
2022-10-04T05:09:00.647Z,8.65
2022-10-04T05:11:34.952Z,8.73
2022-10-04T05:14:16.419Z,8.63
2022-10-04T05:16:58.857Z,9.38
2022-10-04T05:19:36.348Z,9.88
2022-10-04T05:22:26.499Z,9.43
2022-10-04T05:25:10.442Z,9.23
2022-10-04T05:27:43.176Z,9.27
2022-10-04T05:30:23.203Z,8.37
2022-10-04T05:33:07.583Z,8.95
2022-10-04T05:36:07.703Z,8.18
2022-10-04T05:39:08.288Z,8.43
2022-10-04T05:42:28.468Z,8.02
2022-10-04T05:45:04.797Z,5.32
2022-10-04T05:47:34.839Z,7.78
2022-10-04T05:50:04.010Z,7.35
2022-10-04T05:52:37.405Z,7.50
2022-10-04T06:01:30.032Z,7.88
2022-10-04T06:04:25.702Z,7.68
2022-10-04T06:07:55.231Z,6.60
2022-10-04T06:11:02.132Z,7.60
2022-10-04T06:17:34.571Z,6.45
2022-10-04T06:20:27.900Z,7.35
2022-10-04T06:23:23.891Z,6.97
2022-10-04T06:26:10.418Z,7.63
2022-10-04T06:28:55.695Z,7.75
2022-10-04T06:31:57.131Z,7.93
2022-10-04T06:35:00.339Z,6.97
2022-10-04T06:37:40.478Z,7.00
2022-10-04T06:40:50.055Z,7.85
2022-10-04T06:43:45.039Z,8.43
2022-10-04T06:46:27.856Z,8.13
2022-10-04T06:49:40.598Z,7.10
2022-10-04T06:52:17.327Z,8.80
2022-10-04T06:54:57.107Z,8.88
2022-10-04T06:57:41.976Z,7.82
2022-10-04T07:00:34.261Z,8.95
2022-10-04T07:03:15.233Z,8.60
2022-10-04T07:06:30.386Z,12.05
2022-10-04T07:09:05.820Z,9.93
2022-10-04T07:11:58.968Z,8.55
2022-10-04T07:14:39.264Z,8.27
2022-10-04T07:17:19.837Z,8.27
2022-10-04T07:19:59.305Z,9.07
2022-10-04T07:22:51.996Z,8.57
2022-10-04T07:25:33.389Z,9.60
2022-10-04T07:28:37.610Z,9.25
2022-10-04T07:31:28.703Z,8.82
2022-10-04T07:34:31.185Z,9.30
2022-10-04T07:37:19.639Z,9.25
2022-10-04T07:40:41.397Z,10.13
2022-10-04T07:43:28.337Z,8.68
2022-10-04T07:46:20.396Z,9.40
2022-10-04T07:48:58.317Z,9.10
2022-10-04T07:51:57.991Z,9.70
2022-10-04T07:54:47.365Z,9.75
2022-10-04T07:57:45.690Z,9.40
2022-10-04T08:00:27.162Z,9.18
2022-10-04T08:03:25.533Z,8.88
2022-10-04T08:06:13.241Z,8.45
2022-10-04T08:09:17.705Z,8.10
2022-10-04T08:14:41.041Z,7.57
2022-10-04T08:17:15.411Z,7.82
2022-10-04T08:20:40.235Z,6.75
2022-10-04T08:23:29.394Z,7.78
2022-10-04T08:26:35.422Z,7.22
2022-10-04T08:30:01.899Z,6.78
2022-10-04T08:33:10.219Z,6.50
2022-10-04T08:35:58.359Z,6.10
2022-10-04T08:38:57.746Z,6.22
2022-10-04T08:41:51.798Z,5.40
2022-10-04T08:47:32.349Z,11.10
2022-10-04T08:50:05.951Z,8.48
2022-10-04T08:53:12.568Z,4.70
2022-10-04T08:56:19.450Z,2.88
2022-10-04T08:59:07.429Z,1.63
2022-10-04T09:02:01.998Z,1.60
2022-10-04T09:05:12.476Z,2.25
2022-10-04T09:08:24.498Z,1.52
2022-10-04T09:11:23.679Z,1.70
2022-10-04T09:14:08.641Z,1.98
2022-10-04T09:16:53.237Z,1.92
2022-10-04T09:19:51.398Z,2.45
2022-10-04T09:22:30.000Z,1.90
2022-10-04T09:25:14.671Z,2.03
2022-10-04T09:28:02.341Z,1.45
2022-10-04T09:31:10.177Z,1.55
2022-10-04T09:34:02.243Z,1.50
2022-10-04T09:36:49.767Z,1.40
2022-10-04T09:40:04.624Z,1.52
2022-10-04T09:42:41.705Z,1.98
2022-10-04T09:45:21.828Z,1.50
2022-10-04T09:48:27.730Z,1.98
2022-10-04T09:51:32.761Z,2.55
2022-10-04T09:54:34.349Z,1.42
2022-10-04T09:57:48.696Z,1.80
2022-10-04T10:00:33.474Z,1.55
2022-10-04T10:03:22.649Z,1.58
2022-10-04T10:05:59.432Z,1.60
2022-10-04T10:08:28.455Z,1.30
2022-10-04T10:11:40.599Z,1.45
2022-10-04T10:14:30.536Z,0.95
2022-10-04T10:17:22.979Z,1.42
2022-10-04T10:20:07.904Z,1.75
2022-10-04T10:23:01.609Z,1.52
2022-10-04T10:25:54.604Z,1.88
2022-10-04T10:32:32.844Z,1.95
2022-10-04T10:35:55.755Z,1.40
2022-10-04T10:42:28.281Z,1.33
2022-10-04T10:46:02.481Z,1.17
2022-10-04T10:48:54.766Z,1.20
2022-10-04T10:52:01.048Z,1.20
2022-10-04T10:55:30.006Z,1.20
2022-10-04T10:58:52.445Z,1.38
2022-10-04T11:05:08.991Z,1.45
2022-10-04T11:08:22.319Z,0.85
2022-10-04T11:11:29.159Z,0.82
2022-10-04T11:14:41.747Z,0.85
2022-10-04T11:17:57.974Z,1.30
2022-10-04T11:21:25.577Z,1.40
2022-10-04T11:24:27.356Z,1.05
2022-10-04T11:27:16.232Z,1.13
2022-10-04T11:30:38.793Z,1.10
2022-10-04T11:33:42.666Z,1.80
2022-10-04T11:36:27.036Z,1.10
2022-10-04T11:39:41.447Z,1.20
2022-10-04T11:42:29.848Z,1.20
2022-10-04T11:45:23.906Z,1.10
2022-10-04T11:48:14.506Z,2.13
2022-10-04T11:51:13.239Z,0.80
2022-10-04T11:54:12.192Z,1.00
2022-10-04T12:00:21.816Z,1.15
2022-10-04T12:03:14.348Z,4.28
2022-10-04T12:06:25.860Z,1.52
2022-10-04T12:09:23.624Z,0.80
2022-10-04T12:12:30.285Z,0.82
2022-10-04T12:15:36.349Z,1.20
2022-10-04T12:18:41.682Z,1.17
2022-10-04T12:24:54.803Z,1.00
2022-10-04T12:31:10.703Z,2.33
2022-10-04T12:33:57.133Z,1.43
2022-10-04T12:37:01.342Z,1.88
2022-10-04T12:39:46.298Z,2.00
2022-10-04T12:42:31.614Z,1.20
2022-10-04T12:45:25.345Z,1.23
2022-10-04T12:48:19.832Z,1.50
2022-10-04T12:51:25.215Z,1.65
2022-10-04T12:54:10.684Z,1.67
2022-10-04T12:57:11.626Z,1.55
2022-10-04T13:00:11.664Z,1.45
2022-10-04T13:03:11.959Z,2.75
2022-10-04T13:10:25.534Z,1.30
2022-10-04T13:13:57.321Z,2.58
2022-10-04T13:17:34.566Z,1.85
2022-10-04T13:20:37.034Z,1.73
2022-10-04T13:27:15.513Z,1.50
2022-10-04T13:30:07.179Z,1.27
2022-10-04T13:33:09.725Z,1.80
2022-10-04T13:36:37.290Z,2.03
2022-10-04T13:40:09.518Z,1.25
2022-10-04T13:54:20.776Z,1.92
2022-10-04T13:57:25.996Z,1.52
2022-10-04T14:00:22.126Z,1.55
2022-10-04T14:03:30.226Z,1.20
2022-10-04T14:09:45.561Z,1.70
2022-10-04T14:12:56.211Z,1.23
2022-10-04T14:15:47.923Z,1.35
2022-10-04T14:18:48.759Z,1.90
2022-10-04T14:21:45.337Z,1.40
2022-10-04T14:25:06.709Z,1.05
2022-10-04T14:28:19.483Z,1.15
2022-10-04T14:31:40.051Z,1.20
2022-10-04T14:34:41.809Z,1.02
2022-10-04T14:37:39.900Z,1.33
2022-10-04T14:40:52.159Z,1.42
2022-10-04T14:44:02.038Z,1.35
2022-10-04T14:47:13.516Z,1.25
2022-10-04T14:50:13.515Z,1.30
2022-10-04T14:53:49.964Z,1.02
2022-10-04T14:56:59.078Z,1.48
2022-10-04T14:59:51.899Z,0.95
2022-10-04T15:02:36.972Z,1.17
2022-10-04T15:05:47.844Z,1.10
2022-10-04T15:08:23.494Z,1.30
2022-10-04T15:11:04.064Z,1.33
2022-10-04T15:14:01.080Z,1.10
2022-10-04T15:17:08.028Z,1.80
2022-10-04T15:20:24.606Z,1.20
2022-10-04T15:23:16.821Z,1.15
2022-10-04T15:26:24.862Z,1.77
2022-10-04T15:29:07.918Z,0.85
2022-10-04T15:31:52.989Z,0.98
2022-10-04T15:34:38.946Z,0.90
2022-10-04T15:37:14.978Z,1.33
2022-10-04T15:40:21.913Z,1.65
2022-10-04T15:43:10.728Z,1.15
2022-10-04T15:46:05.765Z,0.77
2022-10-04T15:51:58.797Z,1.65
2022-10-04T15:55:26.665Z,1.40
2022-10-04T15:58:10.750Z,1.05
2022-10-04T16:06:23.987Z,0.95
2022-10-04T16:09:28.235Z,1.10
2022-10-04T16:12:44.482Z,1.27
2022-10-04T16:15:50.313Z,1.25
2022-10-04T16:18:52.876Z,1.15
2022-10-04T16:21:55.409Z,1.63
2022-10-04T16:25:04.758Z,1.73
2022-10-04T16:28:06.107Z,1.23
2022-10-04T16:30:48.465Z,1.00
2022-10-04T16:33:45.155Z,1.65
2022-10-04T16:36:35.054Z,1.17
2022-10-04T16:42:25.889Z,1.42
2022-10-04T16:45:05.103Z,1.30
2022-10-04T16:47:51.140Z,1.10
2022-10-04T16:51:04.127Z,1.10
2022-10-04T16:54:05.199Z,1.08
2022-10-04T16:56:54.744Z,1.13
2022-10-04T16:59:58.296Z,1.88
2022-10-04T17:02:55.542Z,1.60
2022-10-04T17:05:49.348Z,1.63
2022-10-04T17:08:53.947Z,1.60
2022-10-04T17:11:59.537Z,1.42
2022-10-04T17:15:20.900Z,1.27
2022-10-04T17:18:10.595Z,1.27
2022-10-04T17:20:51.964Z,1.17
2022-10-04T17:24:21.621Z,1.38
2022-10-04T17:27:09.953Z,1.92
2022-10-04T17:29:58.785Z,1.35
2022-10-04T17:32:49.970Z,1.90
2022-10-04T17:35:38.556Z,1.42
2022-10-04T17:38:30.172Z,1.73
2022-10-04T17:41:19.084Z,1.50
2022-10-04T17:43:56.357Z,1.50
2022-10-04T17:46:40.393Z,1.73
2022-10-04T17:50:06.816Z,1.23
2022-10-04T17:53:26.786Z,1.63
2022-10-04T17:56:15.353Z,2.53
2022-10-04T18:02:23.822Z,2.03
2022-10-04T18:05:15.055Z,1.85
2022-10-04T18:08:18.812Z,2.20
2022-10-04T18:11:11.949Z,2.25
2022-10-04T18:14:26.408Z,2.55
2022-10-04T18:17:13.874Z,2.33
2022-10-04T18:20:02.440Z,2.40
2022-10-04T18:23:07.883Z,1.95
2022-10-04T18:25:59.244Z,2.75
2022-10-04T18:28:40.933Z,2.13
2022-10-04T18:31:44.741Z,1.90
2022-10-04T18:34:38.408Z,2.42
2022-10-04T18:37:45.216Z,2.00
2022-10-04T18:40:21.098Z,1.95
2022-10-04T18:43:22.261Z,2.22
2022-10-04T18:46:53.379Z,2.08
2022-10-04T20:50:36.022Z,3.88
2022-10-04T20:58:12.997Z,3.55
2022-10-04T21:06:41.758Z,3.45
2022-10-04T21:09:26.055Z,4.17
2022-10-04T21:16:50.748Z,3.92
2022-10-04T21:20:10.257Z,3.58
2022-10-04T21:32:03.770Z,3.90
2022-10-04T21:36:15.930Z,3.30
2022-10-04T21:51:26.522Z,4.40
2022-10-04T21:57:07.559Z,3.42
2022-10-04T21:59:34.847Z,4.13
2022-10-04T22:02:02.311Z,4.40
2022-10-04T22:04:32.206Z,3.70
2022-10-04T22:07:02.753Z,5.03
2022-10-04T22:09:34.233Z,5.25
2022-10-04T22:12:01.719Z,4.13
2022-10-04T22:14:29.187Z,4.30
2022-10-04T22:16:57.240Z,4.28
2022-10-04T22:19:24.689Z,3.80
2022-10-04T22:21:52.014Z,3.97
2022-10-04T22:24:21.243Z,3.90
2022-10-04T22:26:49.020Z,4.22
2022-10-04T22:29:18.585Z,4.10
2022-10-04T22:31:52.983Z,4.65
2022-10-04T22:34:23.981Z,4.20
2022-10-04T22:36:53.281Z,4.68
2022-10-04T22:39:24.033Z,3.95
2022-10-04T22:41:58.716Z,3.90
2022-10-04T22:44:30.313Z,4.53
2022-10-04T22:47:00.581Z,4.40
2022-10-04T22:49:43.548Z,4.30
2022-10-04T22:52:31.694Z,4.40
2022-10-04T22:55:02.743Z,4.13
2022-10-04T22:57:31.090Z,4.38
2022-10-04T22:59:58.587Z,5.20
2022-10-04T23:02:30.323Z,3.75
2022-10-04T23:05:18.565Z,4.28
2022-10-04T23:07:47.877Z,4.38
2022-10-04T23:10:19.191Z,4.15
2022-10-04T23:12:49.269Z,4.35
2022-10-04T23:15:20.047Z,3.88
2022-10-04T23:17:54.659Z,4.97
2022-10-04T23:20:25.563Z,4.30
2022-10-04T23:22:55.247Z,3.60
2022-10-04T23:25:30.155Z,3.97
2022-10-04T23:28:02.356Z,4.22
2022-10-04T23:30:29.901Z,4.53
2022-10-04T23:33:00.729Z,4.70
2022-10-04T23:35:33.347Z,4.07
2022-10-04T23:38:07.448Z,3.80
2022-10-04T23:40:34.866Z,4.40
2022-10-04T23:43:05.982Z,4.00
2022-10-04T23:45:38.244Z,4.32
2022-10-04T23:48:13.364Z,3.55
2022-10-04T23:50:41.406Z,4.13
2022-10-04T23:53:24.049Z,4.03
2022-10-04T23:55:51.596Z,3.67
2022-10-04T23:58:32.449Z,5.10
